Time;durP1;ratioP1;P1;durP2;ratioP2;P2;SDS_P1;SDS_P2;PMS_P1;PMS_P2;Temp;Humidity;BMP_temperature;BMP_pressure;BME280_temperature;BME280_humidity;BME280_pressure;Samples;Min_cycle;Max_cycle;Signal;HPM_P1;HPM_P2
2024/01/20 00:00:19;;;;;;;;;15.00;14.75;;;;;;;;5062300;28;46106;-79
2024/01/20 00:02:45;;;;;;;;;26.75;23.75;;;;;;;;5062212;28;45302;-78
2024/01/20 00:05:10;;;;;;;;;15.75;15.75;;;;;;;;5062202;28;45804;-78
2024/01/20 00:07:35;;;;;;;;;20.75;16.50;;;;;;;;5062185;28;45521;-78
2024/01/20 00:10:00;;;;;;;;;15.25;13.75;;;;;;;;5062064;28;45376;-79
2024/01/20 00:12:26;;;;;;;;;22.75;21.50;;;;;;;;5042895;28;45340;-78
2024/01/20 00:14:51;;;;;;;;;18.75;16.75;;;;;;;;5062082;28;45347;-79
2024/01/20 00:17:16;;;;;;;;;16.75;14.75;;;;;;;;5062093;28;45325;-79
2024/01/20 00:19:41;;;;;;;;;17.00;14.75;;;;;;;;5043742;28;47281;-79
2024/01/20 00:22:06;;;;;;;;;20.00;18.00;;;;;;;;5061846;28;45355;-78
2024/01/20 00:24:32;;;;;;;;;17.50;16.75;;;;;;;;5061996;28;45379;-78
2024/01/20 00:26:57;;;;;;;;;19.75;18.25;;;;;;;;5061987;28;45232;-78
2024/01/20 00:29:22;;;;;;;;;17.50;14.75;;;;;;;;5061056;28;46634;-78
2024/01/20 00:31:47;;;;;;;;;21.00;19.50;;;;;;;;5061200;28;45480;-79
2024/01/20 00:34:12;;;;;;;;;17.50;14.75;;;;;;;;5042952;28;45328;-78
2024/01/20 00:36:38;;;;;;;;;20.75;17.75;;;;;;;;5061419;28;45291;-79
2024/01/20 00:39:04;;;;;;;;;17.25;15.50;;;;;;;;5061569;28;46167;-79
2024/01/20 00:41:29;;;;;;;;;19.75;19.50;;;;;;;;5061605;28;45382;-79
2024/01/20 00:43:54;;;;;;;;;20.50;18.00;;;;;;;;5061457;28;45294;-78
2024/01/20 00:46:20;;;;;;;;;19.75;19.00;;;;;;;;5043380;28;46087;-78
2024/01/20 00:48:46;;;;;;;;;17.75;14.50;;;;;;;;5061369;28;45257;-79
2024/01/20 00:51:11;;;;;;;;;17.25;15.75;;;;;;;;5061564;28;45284;-79
2024/01/20 00:53:36;;;;;;;;;18.50;17.50;;;;;;;;5043432;28;45275;-78
2024/01/20 00:56:01;;;;;;;;;10.25;10.00;;;;;;;;5061539;28;45462;-78
2024/01/20 00:58:27;;;;;;;;;14.50;14.00;;;;;;;;5042863;28;47266;-79
2024/01/20 01:00:52;;;;;;;;;16.00;15.00;;;;;;;;5061199;28;45335;-78
2024/01/20 01:03:17;;;;;;;;;20.75;17.75;;;;;;;;5061524;28;45240;-78
2024/01/20 01:05:42;;;;;;;;;25.00;20.75;;;;;;;;5043101;28;46964;-78
2024/01/20 01:08:08;;;;;;;;;19.00;19.00;;;;;;;;5061364;28;45243;-79
2024/01/20 01:10:33;;;;;;;;;17.00;14.50;;;;;;;;5060892;28;45197;-79
2024/01/20 01:12:59;;;;;;;;;18.75;15.25;;;;;;;;5042980;28;45655;-78
2024/01/20 01:15:24;;;;;;;;;15.75;14.50;;;;;;;;5042029;28;46264;-78
2024/01/20 01:17:49;;;;;;;;;21.75;21.00;;;;;;;;5060544;28;45241;-78
2024/01/20 01:20:15;;;;;;;;;21.50;17.75;;;;;;;;5060843;28;45357;-78
2024/01/20 01:22:40;;;;;;;;;14.25;13.75;;;;;;;;5061026;28;45585;-78
2024/01/20 01:25:05;;;;;;;;;21.25;16.75;;;;;;;;5060892;28;45470;-79
2024/01/20 01:27:30;;;;;;;;;16.00;16.00;;;;;;;;5042774;28;48587;-79
2024/01/20 01:29:56;;;;;;;;;20.75;18.25;;;;;;;;5042426;28;45610;-79
2024/01/20 01:32:21;;;;;;;;;18.75;17.25;;;;;;;;5060934;28;45233;-78
2024/01/20 01:34:46;;;;;;;;;17.25;15.50;;;;;;;;5042740;28;47028;-78
2024/01/20 01:37:11;;;;;;;;;23.25;22.50;;;;;;;;5042517;28;47204;-78
2024/01/20 01:39:36;;;;;;;;;23.50;19.75;;;;;;;;5060826;28;45225;-78
2024/01/20 01:42:02;;;;;;;;;19.75;19.75;;;;;;;;5060881;28;45308;-78
2024/01/20 01:44:27;;;;;;;;;18.50;17.00;;;;;;;;5060445;28;45404;-78
2024/01/20 01:46:52;;;;;;;;;13.75;13.50;;;;;;;;5042431;28;48374;-79
2024/01/20 01:49:17;;;;;;;;;18.00;14.25;;;;;;;;5042275;28;45308;-79
2024/01/20 01:51:43;;;;;;;;;25.00;20.75;;;;;;;;5042482;28;45435;-78
2024/01/20 01:54:08;;;;;;;;;12.75;10.75;;;;;;;;5042316;28;46964;-79
2024/01/20 01:56:33;;;;;;;;;17.75;16.75;;;;;;;;5042255;28;47067;-78
2024/01/20 01:58:59;;;;;;;;;19.00;16.50;;;;;;;;5060215;28;45252;-79
2024/01/20 02:01:24;;;;;;;;;16.50;16.00;;;;;;;;5060580;28;45223;-78
2024/01/20 02:03:49;;;;;;;;;16.50;16.50;;;;;;;;5060230;28;45517;-78
2024/01/20 02:06:15;;;;;;;;;17.75;17.75;;;;;;;;5042184;28;47240;-78
2024/01/20 02:08:40;;;;;;;;;13.25;13.25;;;;;;;;5042172;28;45269;-78
2024/01/20 02:11:06;;;;;;;;;18.00;15.50;;;;;;;;5060442;28;45251;-78
2024/01/20 02:13:32;;;;;;;;;22.00;20.50;;;;;;;;5041918;28;47149;-78
2024/01/20 02:15:57;;;;;;;;;18.75;17.00;;;;;;;;5042042;28;47361;-78
2024/01/20 02:18:22;;;;;;;;;20.75;17.00;;;;;;;;5060050;28;45265;-78
2024/01/20 02:20:47;;;;;;;;;20.00;20.00;;;;;;;;5060253;28;45260;-78
2024/01/20 02:23:13;;;;;;;;;14.25;13.50;;;;;;;;5060035;28;45541;-78
2024/01/20 02:25:38;;;;;;;;;15.25;14.75;;;;;;;;5041760;28;46998;-78
2024/01/20 02:28:03;;;;;;;;;14.25;13.75;;;;;;;;5060167;28;45316;-78
2024/01/20 02:30:28;;;;;;;;;17.75;16.25;;;;;;;;5060107;28;45625;-78
2024/01/20 02:32:53;;;;;;;;;15.75;14.75;;;;;;;;5059907;28;45775;-78
2024/01/20 02:35:18;;;;;;;;;19.25;18.00;;;;;;;;5059616;28;45431;-78
2024/01/20 02:37:44;;;;;;;;;16.25;16.25;;;;;;;;5041697;28;45326;-78
2024/01/20 02:40:10;;;;;;;;;14.25;13.00;;;;;;;;5060100;28;45427;-79
2024/01/20 02:42:35;;;;;;;;;16.50;14.50;;;;;;;;5059634;28;45280;-78
2024/01/20 02:45:00;;;;;;;;;16.50;16.50;;;;;;;;5041212;28;48227;-78
2024/01/20 02:47:25;;;;;;;;;18.00;17.00;;;;;;;;5059720;28;45323;-78
2024/01/20 02:49:50;;;;;;;;;13.25;9.50;;;;;;;;5059866;28;45462;-78
2024/01/20 02:52:15;;;;;;;;;18.25;15.00;;;;;;;;5059668;28;45569;-78
2024/01/20 02:54:41;;;;;;;;;17.00;15.25;;;;;;;;5059499;28;45453;-79
2024/01/20 02:57:06;;;;;;;;;20.25;18.00;;;;;;;;5041514;28;45315;-78
2024/01/20 02:59:31;;;;;;;;;20.25;19.50;;;;;;;;5059539;28;45372;-79
2024/01/20 03:01:56;;;;;;;;;21.75;18.00;;;;;;;;5059532;28;45397;-79
2024/01/20 03:04:22;;;;;;;;;21.75;17.75;;;;;;;;5059259;28;45319;-78
2024/01/20 03:06:47;;;;;;;;;18.00;16.00;;;;;;;;5041474;28;45383;-78
2024/01/20 03:09:15;;;;;;;;;18.50;18.50;;;;;;;;5041548;28;45448;-78
2024/01/20 03:11:41;;;;;;;;;15.50;15.00;;;;;;;;5059423;28;45276;-78
2024/01/20 03:14:07;;;;;;;;;17.25;14.25;;;;;;;;5059043;28;45295;-78
2024/01/20 03:16:32;;;;;;;;;16.00;14.00;;;;;;;;5041221;28;45260;-78
2024/01/20 03:18:57;;;;;;;;;19.00;16.00;;;;;;;;5059506;28;45296;-78
2024/01/20 03:21:22;;;;;;;;;18.25;16.75;;;;;;;;5059037;28;45201;-78
2024/01/20 03:23:48;;;;;;;;;15.25;14.50;;;;;;;;5051011;28;48561;-78
2024/01/20 03:26:13;;;;;;;;;19.25;16.50;;;;;;;;5079536;28;45432;-78
2024/01/20 03:28:39;;;;;;;;;13.25;13.25;;;;;;;;5079522;28;45327;-78
2024/01/20 03:31:04;;;;;;;;;15.50;14.50;;;;;;;;5079467;28;45442;-78
2024/01/20 03:33:29;;;;;;;;;17.50;15.75;;;;;;;;5060905;28;47387;-78
2024/01/20 03:35:54;;;;;;;;;20.00;18.00;;;;;;;;5079483;28;45378;-78
2024/01/20 03:38:19;;;;;;;;;11.75;9.50;;;;;;;;5061157;28;45334;-78
2024/01/20 03:40:45;;;;;;;;;16.75;10.25;;;;;;;;5079292;28;45319;-79
2024/01/20 03:43:10;;;;;;;;;24.00;21.00;;;;;;;;5060917;28;47481;-78
2024/01/20 03:45:37;;;;;;;;;19.50;16.25;;;;;;;;5079038;28;45398;-78
2024/01/20 03:48:03;;;;;;;;;16.75;16.75;;;;;;;;5080348;28;45524;-78
2024/01/20 03:50:28;;;;;;;;;16.75;16.25;;;;;;;;5064326;28;46329;-78
2024/01/20 03:52:53;;;;;;;;;11.00;11.00;;;;;;;;5082843;28;45479;-79
2024/01/20 03:55:18;;;;;;;;;19.50;14.75;;;;;;;;5082771;28;45528;-78
2024/01/20 03:57:43;;;;;;;;;18.00;15.25;;;;;;;;5053482;28;45449;-78
2024/01/20 04:00:09;;;;;;;;;13.00;12.25;;;;;;;;5062166;28;45501;-78
2024/01/20 04:02:34;;;;;;;;;19.50;18.25;;;;;;;;5044099;28;47377;-78
2024/01/20 04:04:59;;;;;;;;;16.50;15.75;;;;;;;;5044002;28;45312;-78
2024/01/20 04:07:24;;;;;;;;;16.25;12.50;;;;;;;;5062460;28;45307;-79
2024/01/20 04:09:50;;;;;;;;;15.50;13.25;;;;;;;;5044183;28;46238;-77
2024/01/20 04:12:15;;;;;;;;;18.25;14.00;;;;;;;;5043915;28;48270;-78
2024/01/20 04:14:40;;;;;;;;;15.00;15.00;;;;;;;;5043885;28;45337;-78
2024/01/20 04:17:05;;;;;;;;;15.00;15.00;;;;;;;;5062276;28;45144;-78
2024/01/20 04:19:30;;;;;;;;;15.75;14.00;;;;;;;;5062002;28;45544;-78
2024/01/20 04:21:55;;;;;;;;;17.25;13.25;;;;;;;;5043625;28;47102;-78
2024/01/20 04:24:21;;;;;;;;;17.75;17.75;;;;;;;;5044076;28;45928;-78
2024/01/20 04:26:46;;;;;;;;;24.00;17.00;;;;;;;;5062420;28;45201;-78
2024/01/20 04:29:11;;;;;;;;;18.50;17.75;;;;;;;;5062364;28;45467;-78
2024/01/20 04:31:36;;;;;;;;;19.25;15.75;;;;;;;;5043859;28;47122;-78
2024/01/20 04:34:02;;;;;;;;;12.00;12.00;;;;;;;;5061816;28;45303;-78
2024/01/20 04:36:27;;;;;;;;;14.25;12.50;;;;;;;;5062684;28;45288;-78
2024/01/20 04:38:52;;;;;;;;;17.50;16.00;;;;;;;;5062236;28;45596;-77
2024/01/20 04:41:17;;;;;;;;;20.25;17.25;;;;;;;;5061831;28;45252;-77
2024/01/20 04:43:42;;;;;;;;;20.75;17.25;;;;;;;;5043559;28;45514;-78
2024/01/20 04:46:08;;;;;;;;;15.25;13.25;;;;;;;;5043945;28;45373;-78
2024/01/20 04:48:33;;;;;;;;;16.25;14.75;;;;;;;;5044077;28;46388;-78
2024/01/20 04:50:58;;;;;;;;;22.25;18.25;;;;;;;;5043526;28;47956;-78
2024/01/20 04:53:23;;;;;;;;;19.00;17.50;;;;;;;;5043766;28;45245;-78
2024/01/20 04:55:49;;;;;;;;;20.25;18.50;;;;;;;;5062326;28;45509;-78
2024/01/20 04:58:14;;;;;;;;;19.25;18.50;;;;;;;;5061447;28;45363;-78
2024/01/20 05:00:39;;;;;;;;;16.00;16.00;;;;;;;;5043054;28;47264;-78
2024/01/20 05:03:06;;;;;;;;;20.25;17.00;;;;;;;;5061712;28;45380;-78
2024/01/20 05:05:32;;;;;;;;;18.25;15.50;;;;;;;;5043808;28;45366;-78
2024/01/20 05:07:57;;;;;;;;;18.50;17.00;;;;;;;;5062326;28;45773;-78
2024/01/20 05:10:22;;;;;;;;;23.50;22.25;;;;;;;;5062340;28;45647;-78
2024/01/20 05:12:47;;;;;;;;;23.25;21.00;;;;;;;;5062131;28;45435;-78
2024/01/20 05:15:12;;;;;;;;;21.50;20.50;;;;;;;;5043479;28;45239;-78
2024/01/20 05:17:38;;;;;;;;;24.00;20.75;;;;;;;;5061279;28;45537;-78
2024/01/20 05:20:05;;;;;;;;;18.75;17.25;;;;;;;;5042595;28;48244;-78
2024/01/20 05:22:30;;;;;;;;;20.50;14.50;;;;;;;;5059927;28;45270;-78
2024/01/20 05:24:55;;;;;;;;;13.00;9.50;;;;;;;;5061612;28;45197;-78
2024/01/20 05:27:21;;;;;;;;;17.75;17.75;;;;;;;;5078870;28;45468;-78
2024/01/20 05:29:46;;;;;;;;;16.00;16.00;;;;;;;;5081894;28;45326;-79
2024/01/20 05:32:11;;;;;;;;;17.25;16.25;;;;;;;;5081710;28;45335;-79
2024/01/20 05:34:36;;;;;;;;;17.50;14.50;;;;;;;;5081852;28;45241;-78
2024/01/20 05:37:01;;;;;;;;;7.75;7.75;;;;;;;;5081358;28;45306;-78
2024/01/20 05:39:26;;;;;;;;;17.00;15.00;;;;;;;;5081480;28;46370;-78
2024/01/20 05:41:52;;;;;;;;;17.75;17.25;;;;;;;;5081483;28;45307;-79
2024/01/20 05:44:17;;;;;;;;;20.00;17.00;;;;;;;;5081473;28;45276;-78
2024/01/20 05:46:42;;;;;;;;;17.50;15.25;;;;;;;;5064198;28;46231;-78
2024/01/20 05:49:10;;;;;;;;;13.75;13.00;;;;;;;;5081130;28;45288;-79
2024/01/20 05:51:35;;;;;;;;;17.00;13.25;;;;;;;;5081226;28;45265;-78
2024/01/20 05:54:00;;;;;;;;;14.75;10.75;;;;;;;;5080501;28;45398;-78
2024/01/20 05:56:25;;;;;;;;;22.25;15.75;;;;;;;;5081006;28;45256;-79
2024/01/20 05:58:51;;;;;;;;;14.00;12.25;;;;;;;;5042457;28;47043;-79
2024/01/20 06:01:17;;;;;;;;;17.25;15.50;;;;;;;;5042694;28;45376;-79
2024/01/20 06:03:42;;;;;;;;;14.00;14.00;;;;;;;;5043119;28;45339;-79
2024/01/20 06:06:07;;;;;;;;;18.00;14.00;;;;;;;;5043559;28;47554;-78
2024/01/20 06:08:33;;;;;;;;;14.25;14.25;;;;;;;;5061058;28;45269;-79
2024/01/20 06:10:58;;;;;;;;;15.00;15.00;;;;;;;;5042040;28;45319;-79
2024/01/20 06:13:23;;;;;;;;;20.00;16.75;;;;;;;;5042358;28;45263;-78
2024/01/20 06:15:48;;;;;;;;;19.25;18.00;;;;;;;;5060844;28;45507;-79
2024/01/20 06:18:13;;;;;;;;;18.75;17.75;;;;;;;;5060474;28;45381;-78
2024/01/20 06:20:39;;;;;;;;;22.25;16.50;;;;;;;;5060560;28;45267;-78
2024/01/20 06:23:04;;;;;;;;;20.00;17.25;;;;;;;;5043581;28;45237;-79
2024/01/20 06:25:29;;;;;;;;;15.50;14.25;;;;;;;;5062691;28;45507;-79
2024/01/20 06:27:55;;;;;;;;;13.50;13.50;;;;;;;;5061448;28;45350;-78
2024/01/20 06:30:20;;;;;;;;;18.25;16.50;;;;;;;;5046954;28;45197;-81
2024/01/20 06:32:45;;;;;;;;;24.75;20.25;;;;;;;;5070709;28;45291;-80
2024/01/20 06:35:10;;;;;;;;;21.75;19.00;;;;;;;;5051304;28;47511;-79
2024/01/20 06:37:35;;;;;;;;;20.75;17.25;;;;;;;;5044500;28;48264;-80
2024/01/20 06:40:01;;;;;;;;;27.25;24.25;;;;;;;;5044981;28;45265;-80
2024/01/20 06:42:26;;;;;;;;;27.75;24.50;;;;;;;;5071807;28;45314;-80
2024/01/20 06:44:51;;;;;;;;;24.00;23.00;;;;;;;;5072302;28;45637;-79
2024/01/20 06:47:17;;;;;;;;;22.50;20.25;;;;;;;;5073649;28;45422;-79
2024/01/20 06:49:42;;;;;;;;;18.25;17.75;;;;;;;;5067347;28;45361;-81
2024/01/20 06:52:07;;;;;;;;;20.25;19.75;;;;;;;;5050602;28;45288;-79
2024/01/20 06:54:32;;;;;;;;;26.00;23.25;;;;;;;;5064869;28;45342;-78
2024/01/20 06:56:58;;;;;;;;;24.75;22.75;;;;;;;;5074085;28;45368;-77
2024/01/20 06:59:23;;;;;;;;;25.00;25.00;;;;;;;;5070220;28;45260;-77
2024/01/20 07:01:48;;;;;;;;;23.75;22.00;;;;;;;;5041859;28;45372;-78
2024/01/20 07:04:13;;;;;;;;;28.75;24.50;;;;;;;;5059221;28;45549;-78
2024/01/20 07:06:39;;;;;;;;;31.75;27.75;;;;;;;;5041182;28;47174;-77
2024/01/20 07:09:05;;;;;;;;;31.00;27.50;;;;;;;;5041466;28;45348;-78
2024/01/20 07:11:30;;;;;;;;;26.00;26.00;;;;;;;;5041307;28;45380;-79
2024/01/20 07:13:56;;;;;;;;;32.00;27.75;;;;;;;;5059172;28;45439;-79
2024/01/20 07:16:21;;;;;;;;;33.00;32.75;;;;;;;;5043814;28;48275;-79
2024/01/20 07:18:46;;;;;;;;;32.50;31.00;;;;;;;;5060527;28;45363;-80
2024/01/20 07:21:11;;;;;;;;;28.25;28.25;;;;;;;;5066135;28;45307;-79
2024/01/20 07:23:37;;;;;;;;;35.00;33.25;;;;;;;;5048732;28;46549;-79
2024/01/20 07:26:02;;;;;;;;;43.00;38.00;;;;;;;;5070417;28;45353;-79
2024/01/20 07:28:27;;;;;;;;;32.50;31.50;;;;;;;;5050152;28;45367;-80
2024/01/20 07:30:53;;;;;;;;;33.00;29.00;;;;;;;;5053634;28;45254;-80
2024/01/20 07:33:18;;;;;;;;;38.00;36.25;;;;;;;;5065001;28;45296;-77
2024/01/20 07:35:44;;;;;;;;;40.75;35.75;;;;;;;;5044444;28;47245;-77
2024/01/20 07:38:09;;;;;;;;;29.50;27.75;;;;;;;;5044512;28;45899;-77
2024/01/20 07:40:34;;;;;;;;;39.75;35.00;;;;;;;;5062926;28;45280;-78
2024/01/20 07:42:59;;;;;;;;;41.75;35.50;;;;;;;;5044635;28;46228;-77
2024/01/20 07:45:27;;;;;;;;;46.25;40.50;;;;;;;;5062130;28;46144;-77
2024/01/20 07:47:52;;;;;;;;;39.75;38.50;;;;;;;;5062540;28;45414;-78
2024/01/20 07:50:17;;;;;;;;;43.00;37.75;;;;;;;;5044162;28;45466;-78
2024/01/20 07:52:42;;;;;;;;;39.00;37.00;;;;;;;;5062121;28;45283;-78
2024/01/20 07:55:08;;;;;;;;;38.50;38.00;;;;;;;;5044276;28;47168;-77
2024/01/20 07:57:33;;;;;;;;;40.75;37.25;;;;;;;;5062210;28;45269;-78
2024/01/20 07:59:58;;;;;;;;;39.75;36.00;;;;;;;;5062843;28;45194;-77
2024/01/20 08:02:23;;;;;;;;;33.75;32.25;;;;;;;;5048772;28;47038;-77
2024/01/20 08:04:48;;;;;;;;;34.25;32.25;;;;;;;;5069582;28;45316;-78
2024/01/20 08:07:14;;;;;;;;;36.50;32.25;;;;;;;;5066026;28;45197;-78
2024/01/20 08:09:39;;;;;;;;;24.75;21.50;;;;;;;;5065238;28;45350;-78
2024/01/20 08:12:04;;;;;;;;;48.50;37.00;;;;;;;;5043467;28;45912;-78
2024/01/20 08:14:30;;;;;;;;;44.50;38.50;;;;;;;;5062121;28;45516;-78
2024/01/20 08:16:55;;;;;;;;;45.25;41.25;;;;;;;;5043517;28;45376;-78
2024/01/20 08:19:20;;;;;;;;;47.25;41.25;;;;;;;;5060906;28;45399;-78
2024/01/20 08:21:45;;;;;;;;;36.25;33.50;;;;;;;;5061411;28;45407;-78
2024/01/20 08:24:10;;;;;;;;;45.50;39.75;;;;;;;;5061673;28;45339;-78
2024/01/20 08:26:36;;;;;;;;;33.75;31.75;;;;;;;;5061908;28;45363;-78
2024/01/20 08:29:01;;;;;;;;;40.75;33.25;;;;;;;;5061799;28;45553;-77
2024/01/20 08:31:27;;;;;;;;;46.75;40.00;;;;;;;;5062068;28;45321;-78
2024/01/20 08:33:52;;;;;;;;;44.25;39.25;;;;;;;;5060812;28;45628;-77
2024/01/20 08:36:17;;;;;;;;;45.25;44.25;;;;;;;;5061633;28;45352;-77
2024/01/20 08:38:43;;;;;;;;;49.75;44.75;;;;;;;;5062075;28;45589;-77
2024/01/20 08:41:08;;;;;;;;;40.25;37.25;;;;;;;;5042237;28;46288;-78
2024/01/20 08:43:35;;;;;;;;;39.75;35.75;;;;;;;;5043267;28;47164;-79
2024/01/20 08:46:01;;;;;;;;;48.75;44.75;;;;;;;;5061738;28;45451;-79
2024/01/20 08:48:29;;;;;;;;;51.75;46.75;;;;;;;;5046107;27;45237;-80
2024/01/20 08:50:54;;;;;;;;;51.50;46.50;;;;;;;;5059107;28;46193;-81
2024/01/20 08:53:19;;;;;;;;;40.25;36.25;;;;;;;;5081563;28;45266;-76
2024/01/20 08:55:44;;;;;;;;;53.25;46.75;;;;;;;;5081730;28;45318;-78
2024/01/20 08:58:09;;;;;;;;;60.50;48.50;;;;;;;;5066888;28;45217;-80
2024/01/20 09:00:35;;;;;;;;;56.00;48.25;;;;;;;;5042984;28;46046;-78
2024/01/20 09:03:00;;;;;;;;;60.25;49.50;;;;;;;;5061385;28;45285;-79
2024/01/20 09:05:25;;;;;;;;;56.75;50.00;;;;;;;;5050776;28;45364;-80
2024/01/20 09:07:50;;;;;;;;;57.00;48.75;;;;;;;;5081844;27;45342;-82
2024/01/20 09:10:15;;;;;;;;;56.50;49.00;;;;;;;;5063229;28;47119;-80
2024/01/20 09:12:41;;;;;;;;;53.00;46.50;;;;;;;;5049006;28;48088;-81
2024/01/20 09:15:06;;;;;;;;;61.75;51.25;;;;;;;;5042721;28;45302;-79
2024/01/20 09:17:31;;;;;;;;;66.25;50.25;;;;;;;;5061664;28;45331;-80
2024/01/20 09:19:56;;;;;;;;;58.75;49.75;;;;;;;;5042885;28;46261;-80
2024/01/20 09:22:21;;;;;;;;;48.50;44.00;;;;;;;;5061000;28;46351;-82
2024/01/20 09:24:47;;;;;;;;;63.00;48.25;;;;;;;;5043159;28;45378;-81
2024/01/20 09:27:12;;;;;;;;;58.50;49.75;;;;;;;;5043114;28;45517;-80
2024/01/20 09:29:37;;;;;;;;;49.00;41.75;;;;;;;;5060536;28;45424;-82
2024/01/20 09:32:03;;;;;;;;;53.50;46.00;;;;;;;;5061780;28;45440;-79
2024/01/20 09:34:28;;;;;;;;;63.00;51.75;;;;;;;;5047996;28;45904;-79
2024/01/20 09:36:53;;;;;;;;;55.50;46.75;;;;;;;;5039531;28;45415;-79
2024/01/20 09:39:20;;;;;;;;;63.25;54.50;;;;;;;;5059323;28;45331;-80
2024/01/20 09:41:45;;;;;;;;;76.25;59.75;;;;;;;;5041869;28;47201;-78
2024/01/20 09:44:12;;;;;;;;;77.25;62.75;;;;;;;;5059700;28;45401;-80
2024/01/20 09:46:40;;;;;;;;;72.50;57.00;;;;;;;;5040948;28;45367;-80
2024/01/20 09:49:06;;;;;;;;;78.75;63.25;;;;;;;;5041672;28;46443;-79
2024/01/20 09:51:31;;;;;;;;;77.00;60.50;;;;;;;;5044447;28;47670;-80
2024/01/20 09:54:00;;;;;;;;;84.50;64.75;;;;;;;;5044679;28;45490;-79
2024/01/20 09:56:26;;;;;;;;;80.50;64.75;;;;;;;;5066675;28;45296;-79
2024/01/20 09:58:52;;;;;;;;;88.00;69.75;;;;;;;;5059762;28;45551;-82
2024/01/20 10:01:17;;;;;;;;;65.25;52.00;;;;;;;;5063235;28;47077;-80
2024/01/20 10:03:43;;;;;;;;;73.25;57.50;;;;;;;;5062186;28;45705;-81
2024/01/20 10:06:08;;;;;;;;;63.50;52.50;;;;;;;;5080098;27;45244;-80
2024/01/20 10:08:33;;;;;;;;;52.25;45.00;;;;;;;;5049867;28;47698;-80
2024/01/20 10:11:03;;;;;;;;;50.50;45.50;;;;;;;;5069955;28;46696;-84
2024/01/20 10:13:28;;;;;;;;;57.75;46.00;;;;;;;;5041298;28;45723;-79
2024/01/20 10:15:54;;;;;;;;;52.75;44.75;;;;;;;;5043186;28;45412;-80
2024/01/20 10:18:19;;;;;;;;;47.75;44.50;;;;;;;;5063185;28;45363;-79
2024/01/20 10:20:44;;;;;;;;;44.75;40.75;;;;;;;;5067559;28;45661;-78
2024/01/20 10:23:09;;;;;;;;;47.75;43.25;;;;;;;;5043121;28;45648;-78
2024/01/20 10:25:34;;;;;;;;;31.00;29.00;;;;;;;;5065529;28;45803;-77
2024/01/20 10:28:00;;;;;;;;;29.75;23.75;;;;;;;;5044223;28;46893;-79
2024/01/20 10:30:25;;;;;;;;;29.00;25.00;;;;;;;;5059435;28;45548;-79
2024/01/20 10:32:50;;;;;;;;;21.00;18.25;;;;;;;;5066277;28;45479;-78
2024/01/20 10:35:16;;;;;;;;;20.50;20.50;;;;;;;;5075363;28;45450;-78
2024/01/20 10:37:46;;;;;;;;;24.75;24.75;;;;;;;;5080329;28;45617;-79
2024/01/20 10:40:14;;;;;;;;;26.50;22.75;;;;;;;;5062927;28;48066;-79
2024/01/20 10:42:44;;;;;;;;;31.00;26.25;;;;;;;;5062313;28;45198;-78
2024/01/20 10:45:11;;;;;;;;;25.00;24.00;;;;;;;;5061106;28;45350;-79
2024/01/20 10:47:40;;;;;;;;;26.50;23.25;;;;;;;;5080711;28;45319;-79
2024/01/20 10:50:06;;;;;;;;;22.25;21.00;;;;;;;;5079536;28;45589;-79
2024/01/20 10:52:33;;;;;;;;;27.00;24.50;;;;;;;;5061254;28;45307;-80
2024/01/20 10:58:05;;;;;;;;;28.00;21.00;;;;;;;;5065354;28;45739;-78
2024/01/20 11:00:30;;;;;;;;;28.00;23.00;;;;;;;;5047230;28;47151;-81
2024/01/20 11:02:56;;;;;;;;;30.25;26.00;;;;;;;;5087219;28;45401;-80
2024/01/20 11:05:22;;;;;;;;;33.75;31.50;;;;;;;;5078872;28;45310;-81
2024/01/20 11:08:03;;;;;;;;;35.00;30.25;;;;;;;;5042758;28;46970;-80
2024/01/20 11:10:28;;;;;;;;;27.75;24.25;;;;;;;;5043196;28;48000;-80
2024/01/20 11:13:03;;;;;;;;;5.75;2.75;;;;;;;;5042792;28;46037;-80
2024/01/20 11:15:29;;;;;;;;;29.75;28.50;;;;;;;;5041171;28;45357;-79
2024/01/20 11:17:54;;;;;;;;;21.25;20.00;;;;;;;;5058452;28;45549;-79
2024/01/20 11:20:19;;;;;;;;;28.75;23.75;;;;;;;;5057979;28;45467;-80
2024/01/20 11:22:45;;;;;;;;;31.75;26.25;;;;;;;;5040077;28;45383;-80
2024/01/20 11:25:11;;;;;;;;;29.50;25.50;;;;;;;;5061436;28;45390;-79
2024/01/20 11:27:49;;;;;;;;;24.25;21.25;;;;;;;;5059095;28;45361;-80
2024/01/20 11:30:29;;;;;;;;;29.75;26.50;;;;;;;;5041090;28;47245;-80
2024/01/20 11:32:55;;;;;;;;;31.50;28.50;;;;;;;;5066700;28;45495;-79
2024/01/20 11:35:20;;;;;;;;;29.00;28.00;;;;;;;;5044782;28;45582;-79
2024/01/20 11:37:46;;;;;;;;;33.50;31.25;;;;;;;;5040935;28;47368;-79
2024/01/20 11:40:11;;;;;;;;;27.25;25.25;;;;;;;;5043053;28;48192;-80
2024/01/20 11:42:36;;;;;;;;;25.75;23.00;;;;;;;;5040637;28;45482;-79
2024/01/20 11:45:02;;;;;;;;;25.75;23.75;;;;;;;;5060499;28;45303;-80
2024/01/20 11:47:27;;;;;;;;;28.75;27.50;;;;;;;;5060884;28;45257;-80
2024/01/20 11:49:54;;;;;;;;;32.25;29.25;;;;;;;;5052674;28;47281;-83
2024/01/20 11:52:20;;;;;;;;;28.25;26.50;;;;;;;;5073122;28;45458;-82
2024/01/20 11:54:45;;;;;;;;;29.50;27.75;;;;;;;;5052024;28;45348;-83
2024/01/20 11:57:10;;;;;;;;;29.75;25.50;;;;;;;;5047810;28;46968;-81
2024/01/20 11:59:35;;;;;;;;;27.25;24.50;;;;;;;;5070875;28;46268;-82
2024/01/20 12:02:00;;;;;;;;;28.25;23.50;;;;;;;;5051718;28;45287;-80
2024/01/20 12:04:27;;;;;;;;;25.00;21.75;;;;;;;;5068160;28;45187;-84
2024/01/20 12:06:52;;;;;;;;;29.25;24.25;;;;;;;;5062228;28;45269;-81
2024/01/20 12:09:17;;;;;;;;;32.00;28.25;;;;;;;;5038298;28;48514;-81
2024/01/20 12:11:42;;;;;;;;;29.75;24.00;;;;;;;;5034473;28;45486;-83
2024/01/20 12:14:08;;;;;;;;;32.50;28.50;;;;;;;;5045792;28;45318;-81
2024/01/20 12:16:33;;;;;;;;;25.00;23.50;;;;;;;;5045494;28;45564;-81
2024/01/20 12:18:58;;;;;;;;;28.00;25.25;;;;;;;;5043353;28;46191;-83
2024/01/20 12:21:24;;;;;;;;;19.75;17.00;;;;;;;;5043967;28;45300;-82
2024/01/20 12:23:51;;;;;;;;;12.00;10.00;;;;;;;;5061911;28;45334;-82
2024/01/20 12:26:16;;;;;;;;;22.50;22.50;;;;;;;;5037897;28;47421;-82
2024/01/20 12:28:46;;;;;;;;;17.25;17.25;;;;;;;;5040922;28;48363;-82
2024/01/20 12:31:11;;;;;;;;;27.75;18.75;;;;;;;;5041232;28;45290;-83
2024/01/20 12:33:37;;;;;;;;;21.25;18.50;;;;;;;;5039707;28;45267;-82
2024/01/20 12:36:02;;;;;;;;;17.00;17.00;;;;;;;;5061123;28;45225;-82
2024/01/20 12:38:27;;;;;;;;;24.25;21.50;;;;;;;;5061155;28;47711;-82
2024/01/20 12:40:52;;;;;;;;;22.50;21.00;;;;;;;;5060963;28;45275;-82
2024/01/20 12:43:18;;;;;;;;;24.50;21.50;;;;;;;;5060924;28;45392;-82
2024/01/20 12:45:43;;;;;;;;;22.50;20.75;;;;;;;;5061529;28;45535;-80
2024/01/20 12:48:08;;;;;;;;;96.75;91.25;;;;;;;;5065198;28;45611;-80
2024/01/20 12:50:33;;;;;;;;;76.50;61.75;;;;;;;;5064744;28;45277;-79
2024/01/20 12:52:58;;;;;;;;;20.50;19.50;;;;;;;;5041165;28;45573;-80
2024/01/20 12:55:24;;;;;;;;;29.00;23.50;;;;;;;;5042686;28;47212;-80
2024/01/20 12:57:49;;;;;;;;;25.00;22.50;;;;;;;;5056370;28;45336;-80
2024/01/20 13:00:41;;;;;;;;;20.00;20.00;;;;;;;;5050956;28;46046;-82
2024/01/20 13:03:41;;;;;;;;;;;;;;;;;;;;;
2024/01/20 13:06:06;;;;;;;;;24.25;22.50;;;;;;;;5056932;28;75816;-80
2024/01/20 13:12:34;;;;;;;;;;;;;;;;;;;;;
2024/01/20 13:15:03;;;;;;;;;20.33;19.33;;;;;;;;4929422;28;68497;-79
2024/01/20 13:18:07;;;;;;;;;23.67;20.00;;;;;;;;5057561;28;45702;-81
2024/01/20 13:20:35;;;;;;;;;14.00;13.00;;;;;;;;4994479;28;45682;-79
2024/01/20 13:23:00;;;;;;;;;19.33;15.00;;;;;;;;4994798;28;45671;-79
2024/01/20 13:25:26;;;;;;;;;24.00;21.33;;;;;;;;5024663;28;45832;-79
2024/01/20 13:27:51;;;;;;;;;21.67;20.33;;;;;;;;5057231;28;45496;-79
2024/01/20 13:30:17;;;;;;;;;21.00;18.67;;;;;;;;5061484;28;47388;-79
2024/01/20 13:32:42;;;;;;;;;22.33;20.33;;;;;;;;5051482;28;46155;-80
2024/01/20 13:35:07;;;;;;;;;20.33;20.33;;;;;;;;5060007;28;45493;-80
2024/01/20 13:37:33;;;;;;;;;21.00;19.33;;;;;;;;5041769;28;46146;-79
2024/01/20 13:39:58;;;;;;;;;21.00;21.00;;;;;;;;5060095;28;45692;-79
2024/01/20 13:42:23;;;;;;;;;23.00;21.33;;;;;;;;5041905;28;45438;-80
2024/01/20 13:44:48;;;;;;;;;18.00;17.00;;;;;;;;5059286;28;45597;-79
2024/01/20 13:47:14;;;;;;;;;17.33;17.00;;;;;;;;5041689;28;46199;-80
2024/01/20 13:49:39;;;;;;;;;21.67;20.00;;;;;;;;5041576;28;48566;-79
2024/01/20 13:52:04;;;;;;;;;24.67;20.33;;;;;;;;5066078;27;45374;-80
2024/01/20 13:54:29;;;;;;;;;18.67;17.33;;;;;;;;5045051;28;45520;-81
2024/01/20 13:56:55;;;;;;;;;21.67;19.67;;;;;;;;5055379;28;45887;-80
2024/01/20 13:59:20;;;;;;;;;20.00;17.00;;;;;;;;5063318;28;45394;-80
2024/01/20 14:01:46;;;;;;;;;15.33;15.00;;;;;;;;5046566;28;45416;-80
2024/01/20 14:04:13;;;;;;;;;25.33;20.67;;;;;;;;5059213;28;45314;-80
2024/01/20 14:06:38;;;;;;;;;23.67;19.33;;;;;;;;5041265;28;46519;-80
2024/01/20 14:09:05;;;;;;;;;19.00;18.00;;;;;;;;5060439;28;46547;-81
2024/01/20 14:11:30;;;;;;;;;21.67;19.00;;;;;;;;5060349;28;45277;-82
2024/01/20 14:13:55;;;;;;;;;22.00;20.67;;;;;;;;5059503;28;45307;-82
2024/01/20 14:16:21;;;;;;;;;21.67;20.67;;;;;;;;5060736;28;45303;-82